Time;durP1;ratioP1;P1;durP2;ratioP2;P2;SDS_P1;SDS_P2;PMS_P1;PMS_P2;Temp;Humidity;BMP_temperature;BMP_pressure;BME280_temperature;BME280_humidity;BME280_pressure;Samples;Min_cycle;Max_cycle;Signal;HPM_P1;HPM_P2
2024/02/17 00:02:14;;;;;;;3.17;0.85;;;12.20;99.90;;;;;;4421593;32;20089;-59
2024/02/17 00:04:39;;;;;;;0.40;0.40;;;12.20;99.90;;;;;;4425674;32;20077;-59
2024/02/17 00:07:05;;;;;;;0.75;0.70;;;12.20;99.90;;;;;;4424199;32;20068;-59
2024/02/17 00:09:30;;;;;;;0.70;0.70;;;12.10;99.90;;;;;;4423511;32;20107;-59
2024/02/17 00:11:55;;;;;;;1.15;0.70;;;12.10;99.90;;;;;;4425362;32;20575;-62
2024/02/17 00:14:21;;;;;;;3.10;0.98;;;12.10;99.90;;;;;;4427824;32;20427;-60
2024/02/17 00:16:48;;;;;;;0.55;0.55;;;12.10;99.90;;;;;;4414398;32;20057;-60
2024/02/17 00:19:13;;;;;;;0.65;0.65;;;12.00;99.90;;;;;;4425859;32;20132;-60
2024/02/17 00:21:39;;;;;;;0.60;0.60;;;12.10;99.90;;;;;;4428875;32;20123;-60
2024/02/17 00:24:04;;;;;;;1.95;1.17;;;12.00;99.90;;;;;;4430715;32;20077;-59
2024/02/17 00:26:30;;;;;;;0.85;0.70;;;12.00;99.90;;;;;;4424885;32;20078;-59
2024/02/17 00:28:57;;;;;;;3.00;0.90;;;12.00;99.90;;;;;;4421974;32;20073;-57
2024/02/17 00:31:23;;;;;;;0.85;0.55;;;12.00;99.90;;;;;;4426029;32;20600;-59
2024/02/17 00:33:48;;;;;;;1.10;0.60;;;12.00;99.90;;;;;;4420853;32;20086;-60
2024/02/17 00:36:14;;;;;;;1.02;0.88;;;11.90;99.90;;;;;;4429296;32;20065;-59
2024/02/17 00:38:39;;;;;;;0.60;0.50;;;11.90;99.90;;;;;;4418169;32;20097;-59
2024/02/17 00:41:06;;;;;;;0.70;0.70;;;11.80;99.90;;;;;;4426611;32;20108;-59
2024/02/17 00:43:32;;;;;;;3.00;0.50;;;11.80;99.90;;;;;;4428017;32;20089;-59
2024/02/17 00:45:58;;;;;;;0.40;0.40;;;11.80;99.90;;;;;;4425414;32;20073;-58
2024/02/17 00:48:25;;;;;;;11.38;1.40;;;11.80;99.90;;;;;;4425210;32;20119;-59
2024/02/17 00:50:51;;;;;;;0.40;0.40;;;11.80;99.90;;;;;;4424520;32;20097;-60
2024/02/17 00:53:17;;;;;;;0.50;0.50;;;11.70;99.90;;;;;;4426615;32;20192;-59
2024/02/17 00:55:42;;;;;;;0.60;0.60;;;11.70;99.90;;;;;;4410494;32;20082;-59
2024/02/17 00:58:08;;;;;;;5.57;0.60;;;11.70;99.90;;;;;;4424236;32;20223;-60
2024/02/17 01:00:34;;;;;;;0.43;0.43;;;11.70;99.90;;;;;;4425574;32;20496;-60
2024/02/17 01:02:59;;;;;;;0.40;0.40;;;11.70;99.90;;;;;;4424589;32;20082;-60
2024/02/17 01:05:25;;;;;;;0.40;0.40;;;11.60;99.90;;;;;;4429285;32;20057;-60
2024/02/17 01:07:51;;;;;;;0.32;0.32;;;11.60;99.90;;;;;;4428764;32;20085;-59
2024/02/17 01:10:17;;;;;;;0.40;0.40;;;11.60;99.90;;;;;;4429509;32;20073;-60
2024/02/17 01:12:43;;;;;;;0.52;0.52;;;11.50;99.90;;;;;;4414015;32;20652;-60
2024/02/17 01:15:09;;;;;;;0.82;0.60;;;11.50;99.90;;;;;;4419005;32;20151;-63
2024/02/17 01:17:34;;;;;;;0.40;0.40;;;11.50;99.90;;;;;;4426491;32;20073;-60
2024/02/17 01:20:00;;;;;;;0.40;0.40;;;11.50;99.90;;;;;;4428455;32;20065;-59
2024/02/17 01:22:26;;;;;;;0.47;0.47;;;11.50;99.90;;;;;;4427174;32;20124;-60
2024/02/17 01:24:51;;;;;;;0.50;0.50;;;11.50;99.90;;;;;;4427131;32;20127;-59
2024/02/17 01:27:16;;;;;;;0.40;0.40;;;11.50;99.90;;;;;;4426017;32;20131;-59
2024/02/17 01:29:42;;;;;;;0.50;0.50;;;11.60;99.90;;;;;;4424377;32;20430;-59
2024/02/17 01:32:09;;;;;;;0.40;0.40;;;11.50;99.90;;;;;;4425907;32;20062;-60
2024/02/17 01:34:34;;;;;;;0.40;0.40;;;11.50;99.90;;;;;;4425325;32;20057;-60
2024/02/17 01:37:00;;;;;;;0.40;0.40;;;11.50;99.90;;;;;;4427897;32;20090;-57
2024/02/17 01:39:27;;;;;;;0.50;0.50;;;11.40;99.90;;;;;;4426843;32;20107;-60
2024/02/17 01:41:53;;;;;;;0.40;0.40;;;11.40;99.90;;;;;;4427642;32;21090;-63
2024/02/17 01:44:18;;;;;;;0.50;0.50;;;11.40;99.90;;;;;;4427815;32;20085;-60
2024/02/17 01:46:44;;;;;;;0.35;0.35;;;11.40;99.90;;;;;;4426407;32;20438;-59
2024/02/17 01:49:10;;;;;;;0.40;0.40;;;11.40;99.90;;;;;;4428614;32;20097;-60
2024/02/17 01:51:36;;;;;;;0.80;0.50;;;11.40;99.90;;;;;;4430642;32;20073;-59
2024/02/17 01:54:03;;;;;;;0.50;0.50;;;11.40;99.90;;;;;;4418440;32;20469;-58
2024/02/17 01:56:30;;;;;;;0.40;0.40;;;11.40;99.90;;;;;;4412054;32;20102;-59
2024/02/17 01:58:56;;;;;;;0.50;0.50;;;11.40;99.90;;;;;;4413511;32;20497;-60
2024/02/17 02:01:21;;;;;;;0.50;0.50;;;11.40;99.90;;;;;;4414752;32;20119;-60
2024/02/17 02:03:47;;;;;;;0.40;0.40;;;11.50;99.90;;;;;;4411539;32;20062;-60
2024/02/17 02:06:12;;;;;;;0.40;0.40;;;11.40;99.90;;;;;;4417622;32;20653;-60
2024/02/17 02:08:38;;;;;;;0.47;0.47;;;11.40;99.90;;;;;;4417631;32;20050;-60
2024/02/17 02:11:05;;;;;;;3.00;0.73;;;11.40;99.90;;;;;;4413753;32;20074;-60
2024/02/17 02:13:30;;;;;;;0.40;0.40;;;11.40;99.90;;;;;;4411629;32;20081;-60
2024/02/17 02:15:56;;;;;;;0.82;0.82;;;11.40;99.90;;;;;;4413375;32;20069;-60
2024/02/17 02:18:22;;;;;;;0.40;0.40;;;11.40;99.90;;;;;;4415025;32;20124;-59
2024/02/17 02:20:49;;;;;;;0.40;0.40;;;11.40;99.90;;;;;;4413528;32;20086;-59
2024/02/17 02:23:15;;;;;;;0.40;0.40;;;11.40;99.90;;;;;;4413776;32;20057;-60
2024/02/17 02:25:50;;;;;;;0.40;0.40;;;11.30;99.90;;;;;;4415313;32;20093;-60
2024/02/17 02:28:16;;;;;;;0.40;0.40;;;11.30;99.90;;;;;;4417990;32;20086;-58
2024/02/17 02:30:41;;;;;;;0.50;0.50;;;11.40;99.90;;;;;;4418409;32;20077;-60
2024/02/17 02:33:07;;;;;;;0.50;0.50;;;11.30;99.90;;;;;;4417715;32;20127;-60
2024/02/17 02:35:32;;;;;;;0.55;0.55;;;11.30;99.90;;;;;;4420224;32;20058;-59
2024/02/17 02:37:57;;;;;;;0.60;0.60;;;11.20;99.90;;;;;;4420497;32;20082;-60
2024/02/17 02:40:23;;;;;;;1.55;0.60;;;11.30;99.90;;;;;;4417502;32;20504;-60
2024/02/17 02:42:48;;;;;;;0.40;0.40;;;11.20;99.90;;;;;;4415226;32;20073;-59
2024/02/17 02:45:14;;;;;;;0.43;0.43;;;11.20;99.90;;;;;;4418174;32;20446;-59
2024/02/17 02:47:40;;;;;;;0.40;0.40;;;11.20;99.90;;;;;;4417590;32;20136;-59
2024/02/17 02:50:05;;;;;;;1.35;1.02;;;11.20;99.90;;;;;;4417041;32;20702;-60
2024/02/17 02:52:31;;;;;;;0.30;0.30;;;11.20;99.90;;;;;;4421363;32;20073;-60
2024/02/17 02:54:56;;;;;;;0.47;0.47;;;11.20;99.90;;;;;;4427311;32;20476;-59
2024/02/17 02:57:22;;;;;;;0.40;0.40;;;11.20;99.90;;;;;;4423085;32;20073;-60
2024/02/17 02:59:47;;;;;;;0.52;0.52;;;11.10;99.90;;;;;;4425909;32;20407;-60
2024/02/17 03:02:13;;;;;;;1.65;1.40;;;11.00;99.90;;;;;;4428011;32;20073;-60
2024/02/17 03:04:38;;;;;;;0.30;0.30;;;11.00;99.90;;;;;;4428113;32;20098;-60
2024/02/17 03:07:04;;;;;;;0.50;0.50;;;11.00;99.90;;;;;;4428612;32;20545;-58
2024/02/17 03:09:29;;;;;;;0.35;0.35;;;10.90;99.90;;;;;;4429466;32;20782;-60
2024/02/17 03:11:55;;;;;;;2.67;0.77;;;10.90;99.90;;;;;;4429096;32;20069;-62
2024/02/17 03:14:20;;;;;;;0.50;0.50;;;10.90;99.90;;;;;;4427663;32;20127;-59
2024/02/17 03:16:46;;;;;;;0.70;0.70;;;10.90;99.90;;;;;;4421956;32;20061;-58
2024/02/17 03:19:11;;;;;;;0.40;0.40;;;10.90;99.90;;;;;;4419676;32;20094;-60
2024/02/17 03:21:38;;;;;;;0.40;0.40;;;10.80;99.90;;;;;;4431167;32;20065;-59
2024/02/17 03:24:04;;;;;;;0.50;0.50;;;10.80;99.90;;;;;;4407352;32;20094;-59
2024/02/17 03:26:29;;;;;;;0.32;0.32;;;10.80;99.90;;;;;;4427604;32;20268;-60
2024/02/17 03:28:55;;;;;;;0.40;0.40;;;10.80;99.90;;;;;;4427613;32;20073;-60
2024/02/17 03:31:23;;;;;;;1.08;0.60;;;10.70;99.90;;;;;;4426167;32;20085;-60
2024/02/17 03:33:48;;;;;;;0.40;0.40;;;10.70;99.90;;;;;;4428884;32;20085;-60
2024/02/17 03:36:14;;;;;;;0.60;0.60;;;10.70;99.90;;;;;;4428995;32;20085;-59
2024/02/17 03:38:39;;;;;;;0.60;0.60;;;10.70;99.90;;;;;;4429399;32;20086;-60
2024/02/17 03:41:05;;;;;;;0.50;0.50;;;10.70;99.90;;;;;;4429237;32;20086;-59
2024/02/17 03:43:30;;;;;;;0.40;0.40;;;10.70;99.90;;;;;;4426301;32;20171;-62
2024/02/17 03:45:56;;;;;;;0.30;0.30;;;10.80;99.90;;;;;;4426101;32;20541;-60
2024/02/17 03:48:22;;;;;;;1.98;0.85;;;10.80;99.90;;;;;;4430504;32;20077;-60
2024/02/17 03:50:50;;;;;;;2.25;0.90;;;10.80;99.90;;;;;;4429195;32;20082;-59
2024/02/17 03:53:19;;;;;;;0.40;0.40;;;10.80;99.90;;;;;;4417747;32;20208;-60
2024/02/17 03:55:44;;;;;;;0.88;0.85;;;10.80;99.90;;;;;;4424896;32;20120;-59
2024/02/17 03:58:10;;;;;;;0.47;0.47;;;10.80;99.90;;;;;;4425222;32;20077;-60
2024/02/17 04:00:35;;;;;;;2.42;0.77;;;10.80;99.90;;;;;;4425977;32;20489;-59
2024/02/17 04:03:01;;;;;;;0.60;0.60;;;10.90;99.90;;;;;;4415626;32;20093;-59
2024/02/17 04:05:27;;;;;;;0.40;0.40;;;10.90;99.90;;;;;;4426711;32;20163;-60
2024/02/17 04:07:52;;;;;;;0.45;0.45;;;10.90;99.90;;;;;;4427765;32;20054;-60
2024/02/17 04:10:18;;;;;;;0.68;0.68;;;10.90;99.90;;;;;;4426779;32;20521;-60
2024/02/17 04:12:43;;;;;;;1.20;1.10;;;10.90;99.90;;;;;;4417292;32;20072;-59
2024/02/17 04:15:09;;;;;;;0.47;0.47;;;10.90;99.90;;;;;;4429008;32;20081;-59
2024/02/17 04:17:35;;;;;;;0.43;0.43;;;10.90;99.90;;;;;;4417141;32;20061;-59
2024/02/17 04:20:00;;;;;;;1.65;0.60;;;10.90;99.90;;;;;;4426897;32;20093;-60
2024/02/17 04:22:26;;;;;;;25.80;0.70;;;10.90;99.90;;;;;;4426507;32;20073;-61
2024/02/17 04:24:51;;;;;;;0.68;0.65;;;10.90;99.90;;;;;;4424708;32;20069;-60
2024/02/17 04:27:17;;;;;;;0.40;0.40;;;10.90;99.90;;;;;;4425431;32;20065;-60
2024/02/17 04:29:42;;;;;;;0.60;0.60;;;10.80;99.90;;;;;;4425702;32;20476;-60
2024/02/17 04:32:08;;;;;;;0.50;0.50;;;10.80;99.90;;;;;;4426857;32;20073;-59
2024/02/17 04:34:34;;;;;;;1.70;0.85;;;10.80;99.90;;;;;;4418814;32;20094;-60
2024/02/17 04:37:01;;;;;;;0.50;0.43;;;10.80;99.90;;;;;;4431354;32;20069;-60
2024/02/17 04:39:26;;;;;;;0.65;0.60;;;10.80;99.90;;;;;;4427908;32;20084;-59
2024/02/17 04:41:53;;;;;;;4.37;1.02;;;10.80;99.90;;;;;;4424929;32;20064;-60
2024/02/17 04:44:19;;;;;;;0.45;0.45;;;10.80;99.90;;;;;;4418870;32;20174;-59
2024/02/17 04:46:44;;;;;;;0.30;0.30;;;10.80;99.90;;;;;;4424023;32;20876;-59
2024/02/17 04:49:10;;;;;;;0.62;0.62;;;10.80;99.90;;;;;;4424167;32;20410;-60
2024/02/17 04:51:35;;;;;;;0.50;0.50;;;10.80;99.90;;;;;;4429588;32;20459;-60
2024/02/17 04:54:02;;;;;;;0.60;0.60;;;10.70;99.90;;;;;;4429727;32;20549;-59
2024/02/17 04:56:28;;;;;;;0.62;0.60;;;10.70;99.90;;;;;;4414577;32;20972;-60
2024/02/17 04:58:53;;;;;;;0.52;0.52;;;10.60;99.90;;;;;;4427519;32;20068;-58
2024/02/17 05:01:19;;;;;;;0.65;0.65;;;10.60;99.90;;;;;;4425055;32;20159;-59
2024/02/17 05:03:45;;;;;;;0.40;0.40;;;10.60;99.90;;;;;;4426161;32;20509;-62
2024/02/17 05:06:15;;;;;;;0.37;0.37;;;10.60;99.90;;;;;;4429264;32;20085;-58
2024/02/17 05:08:40;;;;;;;0.50;0.50;;;10.50;99.90;;;;;;4428185;32;20109;-60
2024/02/17 05:11:07;;;;;;;0.60;0.60;;;10.60;99.90;;;;;;4425939;32;20106;-63
2024/02/17 05:13:33;;;;;;;2.65;0.60;;;10.60;99.90;;;;;;4428487;32;20077;-62
2024/02/17 05:15:58;;;;;;;0.40;0.40;;;10.60;99.90;;;;;;4425893;32;20069;-59
2024/02/17 05:18:24;;;;;;;0.40;0.40;;;10.70;99.90;;;;;;4430793;32;20072;-58
2024/02/17 05:20:50;;;;;;;0.65;0.57;;;10.60;99.90;;;;;;4425050;32;20057;-59
2024/02/17 05:23:16;;;;;;;0.30;0.30;;;10.50;99.90;;;;;;4427559;32;20134;-59
2024/02/17 05:25:41;;;;;;;0.37;0.37;;;10.50;99.90;;;;;;4426814;32;20084;-60
2024/02/17 05:28:07;;;;;;;0.50;0.50;;;10.40;99.90;;;;;;4429894;32;20090;-60
2024/02/17 05:30:33;;;;;;;0.93;0.47;;;10.40;99.90;;;;;;4425810;32;20552;-59
2024/02/17 05:32:58;;;;;;;0.50;0.50;;;10.40;99.90;;;;;;4425698;32;20073;-60
2024/02/17 05:35:23;;;;;;;3.40;1.05;;;10.40;99.90;;;;;;4427751;32;20085;-63
2024/02/17 05:37:49;;;;;;;0.40;0.40;;;10.30;99.90;;;;;;4425715;32;20089;-60
2024/02/17 05:40:15;;;;;;;0.40;0.40;;;10.30;99.90;;;;;;4426024;32;20072;-60
2024/02/17 05:42:40;;;;;;;0.65;0.65;;;10.30;99.90;;;;;;4426526;32;20058;-63
2024/02/17 05:45:07;;;;;;;0.70;0.70;;;10.30;99.90;;;;;;4424279;32;20073;-60
2024/02/17 05:47:32;;;;;;;0.50;0.50;;;10.30;99.90;;;;;;4427631;32;20073;-60
2024/02/17 05:49:59;;;;;;;1.05;0.75;;;10.20;99.90;;;;;;4404647;32;21605;-60
2024/02/17 05:52:24;;;;;;;0.30;0.30;;;10.20;99.90;;;;;;4422301;32;20069;-60
2024/02/17 05:54:50;;;;;;;0.85;0.52;;;10.20;99.90;;;;;;4422508;32;20072;-59
2024/02/17 05:57:15;;;;;;;0.40;0.40;;;10.10;99.90;;;;;;4421002;32;20082;-60
2024/02/17 05:59:41;;;;;;;0.40;0.40;;;10.20;99.90;;;;;;4414688;32;20554;-60
2024/02/17 06:02:06;;;;;;;0.60;0.60;;;10.10;99.90;;;;;;4427505;32;20078;-60
2024/02/17 06:04:32;;;;;;;0.52;0.52;;;10.20;99.90;;;;;;4432544;32;20259;-60
2024/02/17 06:06:57;;;;;;;0.50;0.50;;;10.10;99.90;;;;;;4430858;32;20172;-60
2024/02/17 06:09:23;;;;;;;0.50;0.50;;;10.10;99.90;;;;;;4428389;32;20071;-60
2024/02/17 06:11:49;;;;;;;0.30;0.30;;;10.20;99.90;;;;;;4427861;32;20065;-62
2024/02/17 06:14:15;;;;;;;0.60;0.60;;;10.10;99.90;;;;;;4422856;32;20065;-60
2024/02/17 06:16:41;;;;;;;0.47;0.47;;;10.20;99.90;;;;;;4427447;32;20093;-60
2024/02/17 06:21:13;;;;;;;0.20;0.20;;;10.20;99.90;;;;;;4422206;32;21127;-59
2024/02/17 06:21:55;;;;;;;1.27;0.80;;;10.30;99.90;;;;;;4420507;32;20144;-58
2024/02/17 06:24:20;;;;;;;0.45;0.45;;;10.30;99.90;;;;;;4429459;32;20309;-60
2024/02/17 06:26:45;;;;;;;0.60;0.60;;;10.30;99.90;;;;;;4428208;32;20397;-60
2024/02/17 06:29:11;;;;;;;0.50;0.50;;;10.20;99.90;;;;;;4418983;32;20058;-60
2024/02/17 06:31:36;;;;;;;2.30;1.02;;;10.20;99.90;;;;;;4416763;32;20073;-60
2024/02/17 06:34:03;;;;;;;0.43;0.43;;;10.20;99.90;;;;;;4428585;32;20073;-60
2024/02/17 06:36:28;;;;;;;0.40;0.40;;;10.10;99.90;;;;;;4417797;32;21201;-60
2024/02/17 06:38:54;;;;;;;0.43;0.43;;;10.10;99.90;;;;;;4429666;32;20061;-60
2024/02/17 06:41:20;;;;;;;0.60;0.60;;;10.10;99.90;;;;;;4427369;32;20128;-60
2024/02/17 06:43:47;;;;;;;0.30;0.30;;;10.10;99.90;;;;;;4418366;32;20517;-59
2024/02/17 06:46:13;;;;;;;0.30;0.30;;;10.10;99.90;;;;;;4431883;32;20455;-62
2024/02/17 06:48:39;;;;;;;0.40;0.40;;;10.20;99.90;;;;;;4431536;32;20076;-60
2024/02/17 06:51:07;;;;;;;5.47;0.80;;;10.20;99.90;;;;;;4421621;32;20061;-60
2024/02/17 06:53:33;;;;;;;0.45;0.45;;;10.20;99.90;;;;;;4420427;32;20073;-60
2024/02/17 06:55:58;;;;;;;0.40;0.40;;;10.10;99.90;;;;;;4427465;32;20073;-60
2024/02/17 06:58:24;;;;;;;0.43;0.43;;;10.10;99.90;;;;;;4424069;32;20521;-60
2024/02/17 07:00:49;;;;;;;0.40;0.40;;;10.10;99.90;;;;;;4422642;32;20060;-60
2024/02/17 07:03:15;;;;;;;1.45;0.50;;;10.20;99.90;;;;;;4430295;32;20128;-59
2024/02/17 07:05:41;;;;;;;3.80;1.15;;;10.10;99.90;;;;;;4429329;32;20065;-59
2024/02/17 07:08:08;;;;;;;0.30;0.30;;;10.10;99.90;;;;;;4420044;32;20651;-59
2024/02/17 07:10:35;;;;;;;1.85;0.40;;;10.10;99.90;;;;;;4417998;32;20080;-60
2024/02/17 07:13:01;;;;;;;0.40;0.40;;;10.10;99.90;;;;;;4429830;32;20595;-60
2024/02/17 07:15:27;;;;;;;0.40;0.40;;;10.10;99.90;;;;;;4430828;32;20077;-65
2024/02/17 07:17:52;;;;;;;0.30;0.30;;;10.10;99.90;;;;;;4429869;32;20180;-60
2024/02/17 07:20:18;;;;;;;0.75;0.70;;;10.10;99.90;;;;;;4431926;32;20085;-60
2024/02/17 07:22:45;;;;;;;3.30;0.85;;;10.10;99.90;;;;;;4430698;32;20568;-60
2024/02/17 07:25:11;;;;;;;0.40;0.40;;;10.10;99.90;;;;;;4430416;32;20078;-60
2024/02/17 07:27:37;;;;;;;0.80;0.80;;;10.10;99.90;;;;;;4414146;32;20074;-59
2024/02/17 07:30:03;;;;;;;0.30;0.30;;;10.10;99.90;;;;;;4417859;32;20084;-60
2024/02/17 07:32:30;;;;;;;0.40;0.40;;;10.10;99.90;;;;;;4429091;32;20531;-60
2024/02/17 07:34:55;;;;;;;0.35;0.35;;;10.10;99.90;;;;;;4428174;32;20153;-60
2024/02/17 07:37:20;;;;;;;0.85;0.60;;;10.10;99.90;;;;;;4421082;32;20081;-59
2024/02/17 07:39:46;;;;;;;0.40;0.40;;;10.10;99.90;;;;;;4428744;32;20064;-60
2024/02/17 07:42:12;;;;;;;0.40;0.40;;;10.10;99.90;;;;;;4428444;32;20076;-58
2024/02/17 07:44:40;;;;;;;0.30;0.30;;;10.10;99.90;;;;;;4416703;32;20065;-60
2024/02/17 07:47:06;;;;;;;0.40;0.40;;;10.20;99.90;;;;;;4428783;32;20131;-60
2024/02/17 07:49:32;;;;;;;0.30;0.30;;;10.20;99.90;;;;;;4430299;32;20092;-60
2024/02/17 07:51:58;;;;;;;0.65;0.65;;;10.20;99.90;;;;;;4432702;32;20140;-60
2024/02/17 07:54:23;;;;;;;0.40;0.40;;;10.20;99.90;;;;;;4428408;32;20516;-60
2024/02/17 07:56:49;;;;;;;3.20;2.20;;;10.10;99.90;;;;;;4429079;32;20120;-60
2024/02/17 07:59:14;;;;;;;1.37;0.75;;;10.20;99.90;;;;;;4424663;32;20093;-60
2024/02/17 08:01:40;;;;;;;0.43;0.43;;;10.20;99.90;;;;;;4429390;32;20065;-59
2024/02/17 08:04:05;;;;;;;1.00;0.60;;;10.20;99.90;;;;;;4427943;32;20550;-60
2024/02/17 08:06:31;;;;;;;0.30;0.30;;;10.20;99.90;;;;;;4425062;32;20528;-58
2024/02/17 08:08:56;;;;;;;1.55;0.50;;;10.20;99.90;;;;;;4428947;32;20064;-60
2024/02/17 08:11:21;;;;;;;3.95;0.60;;;10.30;99.90;;;;;;4425896;32;20065;-61
2024/02/17 08:13:47;;;;;;;0.30;0.30;;;10.30;99.90;;;;;;4428248;32;20078;-60
2024/02/17 08:16:14;;;;;;;0.35;0.35;;;10.30;99.90;;;;;;4426079;32;20069;-60
2024/02/17 08:18:42;;;;;;;0.55;0.55;;;10.30;99.90;;;;;;4427989;32;20085;-60
2024/02/17 08:21:08;;;;;;;0.40;0.40;;;10.40;99.90;;;;;;4430949;32;20069;-60
2024/02/17 08:23:34;;;;;;;1.12;0.95;;;10.40;99.90;;;;;;4427661;32;20091;-60
2024/02/17 08:26:00;;;;;;;0.55;0.55;;;10.40;99.90;;;;;;4411553;32;20078;-60
2024/02/17 08:28:26;;;;;;;0.30;0.30;;;10.50;99.90;;;;;;4424880;32;20505;-59
2024/02/17 08:30:52;;;;;;;0.40;0.40;;;10.50;99.90;;;;;;4425990;32;20619;-59
2024/02/17 08:33:17;;;;;;;0.62;0.62;;;10.50;99.90;;;;;;4424773;32;20140;-60
2024/02/17 08:35:45;;;;;;;0.37;0.37;;;10.50;99.90;;;;;;4424847;32;20070;-59
2024/02/17 08:38:11;;;;;;;2.05;0.73;;;10.60;99.90;;;;;;4423705;32;20069;-61
2024/02/17 08:40:37;;;;;;;0.30;0.30;;;10.60;99.90;;;;;;4424534;32;20540;-59
2024/02/17 08:43:03;;;;;;;0.50;0.50;;;10.70;99.90;;;;;;4426564;32;20489;-60
2024/02/17 08:45:28;;;;;;;0.40;0.40;;;10.70;99.90;;;;;;4425379;32;20090;-59
2024/02/17 08:47:54;;;;;;;0.40;0.40;;;10.80;99.90;;;;;;4428978;32;20057;-59
2024/02/17 08:50:20;;;;;;;0.60;0.60;;;10.90;99.90;;;;;;4418534;32;20073;-62
2024/02/17 08:52:46;;;;;;;21.65;0.68;;;11.00;99.90;;;;;;4422283;32;20840;-60
2024/02/17 08:55:12;;;;;;;0.30;0.30;;;11.20;99.90;;;;;;4412813;32;20567;-59
2024/02/17 08:57:38;;;;;;;0.40;0.40;;;11.10;99.90;;;;;;4415030;32;20061;-59
2024/02/17 09:00:05;;;;;;;0.30;0.30;;;11.10;99.90;;;;;;4415614;32;20073;-60
2024/02/17 09:02:31;;;;;;;0.30;0.30;;;11.10;99.90;;;;;;4411676;32;20081;-60
2024/02/17 09:04:56;;;;;;;0.30;0.30;;;11.10;99.90;;;;;;4411429;32;20120;-59
2024/02/17 09:07:22;;;;;;;0.30;0.30;;;11.10;99.90;;;;;;4414592;32;20073;-59
2024/02/17 09:09:52;;;;;;;0.57;0.57;;;10.90;99.90;;;;;;4416620;32;20061;-58
2024/02/17 09:12:19;;;;;;;0.32;0.32;;;10.90;99.90;;;;;;4416239;32;20120;-60
2024/02/17 09:14:44;;;;;;;0.22;0.22;;;10.90;99.90;;;;;;4414414;32;20159;-60
2024/02/17 09:17:10;;;;;;;0.50;0.50;;;10.90;99.90;;;;;;4414245;32;20168;-60
2024/02/17 09:19:35;;;;;;;0.32;0.32;;;10.80;99.90;;;;;;4418812;32;20131;-60
2024/02/17 09:22:01;;;;;;;0.30;0.30;;;10.80;99.90;;;;;;4417344;32;20521;-60
2024/02/17 09:24:27;;;;;;;0.40;0.40;;;10.70;99.90;;;;;;4414253;32;20073;-60
2024/02/17 09:26:55;;;;;;;0.40;0.40;;;10.80;99.90;;;;;;4416967;32;20466;-60
2024/02/17 09:29:21;;;;;;;1.02;0.70;;;10.90;99.90;;;;;;4416335;32;21055;-60
2024/02/17 09:31:46;;;;;;;0.30;0.30;;;10.90;99.90;;;;;;4413555;32;20783;-59
2024/02/17 09:34:11;;;;;;;0.30;0.30;;;11.00;99.90;;;;;;4417314;32;20481;-60
2024/02/17 09:36:37;;;;;;;0.30;0.30;;;11.00;99.90;;;;;;4417160;32;20061;-60
2024/02/17 09:39:02;;;;;;;0.30;0.30;;;10.90;99.90;;;;;;4414210;32;20073;-61
2024/02/17 09:41:28;;;;;;;0.30;0.30;;;10.90;99.90;;;;;;4420208;32;20345;-60
2024/02/17 09:43:54;;;;;;;1.75;0.73;;;11.00;99.90;;;;;;4417326;32;20057;-61
2024/02/17 09:46:24;;;;;;;0.30;0.30;;;11.00;99.90;;;;;;4421247;32;20555;-62
2024/02/17 09:48:49;;;;;;;0.40;0.40;;;11.00;99.90;;;;;;4416783;32;20501;-62
2024/02/17 09:51:14;;;;;;;0.30;0.30;;;10.80;99.90;;;;;;4420901;32;20078;-60
2024/02/17 09:53:40;;;;;;;0.30;0.30;;;10.70;99.90;;;;;;4425689;32;20214;-60
2024/02/17 09:56:06;;;;;;;0.40;0.40;;;10.70;99.90;;;;;;4428535;32;20127;-60
2024/02/17 09:58:31;;;;;;;0.40;0.40;;;10.70;99.90;;;;;;4427344;32;20195;-61
2024/02/17 10:00:57;;;;;;;0.40;0.40;;;10.80;99.90;;;;;;4429651;32;21720;-61
2024/02/17 10:03:25;;;;;;;0.30;0.30;;;11.00;99.90;;;;;;4427800;32;20077;-60
2024/02/17 10:05:50;;;;;;;0.40;0.40;;;11.00;99.90;;;;;;4417089;32;20423;-61
2024/02/17 10:08:16;;;;;;;0.40;0.40;;;11.00;99.90;;;;;;4423068;32;20062;-61
2024/02/17 10:10:43;;;;;;;0.50;0.50;;;11.10;99.90;;;;;;4420289;32;20078;-61
2024/02/17 10:13:16;;;;;;;0.35;0.35;;;11.20;99.90;;;;;;4416479;32;20092;-61
2024/02/17 10:15:42;;;;;;;0.55;0.55;;;11.30;99.90;;;;;;4408425;32;20073;-61
2024/02/17 10:18:07;;;;;;;0.50;0.50;;;11.50;99.90;;;;;;4427555;32;20123;-61
2024/02/17 10:20:33;;;;;;;0.40;0.40;;;11.70;99.90;;;;;;4433278;32;20088;-59
2024/02/17 10:22:58;;;;;;;12.30;0.60;;;11.80;99.90;;;;;;4428539;32;20053;-60
2024/02/17 10:25:24;;;;;;;0.30;0.30;;;11.90;99.90;;;;;;4428867;32;20093;-60
2024/02/17 10:27:50;;;;;;;0.40;0.40;;;12.00;99.90;;;;;;4428611;32;20077;-60
2024/02/17 10:30:17;;;;;;;0.40;0.40;;;11.90;99.90;;;;;;4423606;32;20520;-61
2024/02/17 10:32:43;;;;;;;0.40;0.40;;;11.80;99.90;;;;;;4428054;32;20536;-67
2024/02/17 10:35:10;;;;;;;0.40;0.40;;;11.50;99.90;;;;;;4405571;32;20120;-61
2024/02/17 10:37:38;;;;;;;6.03;0.50;;;11.30;99.90;;;;;;4421310;32;20115;-59
2024/02/17 10:40:08;;;;;;;0.40;0.40;;;11.20;99.90;;;;;;4425872;32;20069;-59
2024/02/17 10:42:34;;;;;;;0.30;0.30;;;11.20;99.90;;;;;;4418967;32;20116;-59
2024/02/17 10:45:00;;;;;;;0.30;0.30;;;11.20;99.90;;;;;;4407445;32;20120;-59
2024/02/17 10:47:32;;;;;;;0.30;0.30;;;11.40;99.90;;;;;;4420381;32;20064;-60
2024/02/17 10:50:07;;;;;;;0.30;0.30;;;11.50;99.90;;;;;;4421871;32;20065;-59
2024/02/17 10:52:42;;;;;;;0.40;0.40;;;11.60;99.90;;;;;;4421149;32;20069;-59
2024/02/17 10:55:12;;;;;;;0.40;0.40;;;11.80;99.90;;;;;;4419909;32;20298;-59
2024/02/17 10:57:51;;;;;;;0.37;0.37;;;11.90;99.90;;;;;;4415177;32;20790;-59
2024/02/17 11:00:18;;;;;;;0.40;0.40;;;11.90;99.90;;;;;;4414409;32;20054;-60
2024/02/17 11:02:44;;;;;;;0.43;0.43;;;11.80;99.90;;;;;;4418086;32;20053;-60
2024/02/17 11:05:10;;;;;;;0.40;0.40;;;12.00;99.90;;;;;;4422915;32;20092;-59
2024/02/17 11:07:36;;;;;;;0.40;0.40;;;12.10;99.90;;;;;;4427797;32;20183;-62
2024/02/17 11:10:06;;;;;;;0.35;0.35;;;12.10;99.90;;;;;;4426843;32;20552;-59
2024/02/17 11:12:33;;;;;;;0.30;0.30;;;11.90;99.90;;;;;;4418282;32;20073;-58
2024/02/17 11:15:01;;;;;;;0.30;0.30;;;11.70;99.90;;;;;;4419593;32;20179;-58
2024/02/17 11:17:34;;;;;;;0.30;0.30;;;11.70;99.90;;;;;;4430646;32;20582;-58
2024/02/17 11:20:06;;;;;;;0.32;0.32;;;11.40;99.90;;;;;;4418809;32;20069;-59
2024/02/17 11:22:31;;;;;;;0.30;0.30;;;11.40;99.90;;;;;;4416336;32;20073;-58
2024/02/17 11:24:57;;;;;;;0.30;0.30;;;11.40;99.90;;;;;;4405652;32;20569;-60
2024/02/17 11:27:24;;;;;;;0.50;0.50;;;11.40;99.90;;;;;;4427999;32;20596;-60
2024/02/17 11:29:50;;;;;;;0.32;0.32;;;11.20;99.90;;;;;;4428961;32;20126;-64
2024/02/17 11:32:16;;;;;;;0.32;0.32;;;11.20;99.90;;;;;;4427175;32;20065;-60
2024/02/17 11:34:43;;;;;;;0.30;0.30;;;11.30;99.90;;;;;;4427374;32;20077;-59
2024/02/17 11:37:12;;;;;;;2.33;0.50;;;11.40;99.90;;;;;;4407632;32;20105;-59
2024/02/17 11:39:39;;;;;;;0.40;0.40;;;11.40;99.90;;;;;;4418002;32;20069;-59
2024/02/17 11:42:05;;;;;;;0.30;0.30;;;11.50;99.90;;;;;;4424826;32;20111;-60
2024/02/17 11:44:32;;;;;;;0.47;0.47;;;11.50;99.90;;;;;;4428790;32;21081;-60
2024/02/17 11:46:57;;;;;;;0.40;0.40;;;11.80;99.90;;;;;;4425184;32;20077;-59
2024/02/17 11:49:24;;;;;;;0.37;0.37;;;11.90;99.90;;;;;;4428209;32;20077;-60
2024/02/17 11:51:51;;;;;;;0.35;0.35;;;12.00;99.90;;;;;;4416726;32;79027;-60
2024/02/17 11:54:18;;;;;;;0.28;0.28;;;12.10;99.90;;;;;;4425217;32;20497;-60
2024/02/17 11:56:43;;;;;;;0.50;0.50;;;12.20;99.90;;;;;;4413170;32;20773;-60
2024/02/17 11:59:10;;;;;;;0.40;0.40;;;12.30;99.90;;;;;;4423979;32;20124;-59
2024/02/17 12:01:36;;;;;;;0.30;0.30;;;12.40;99.90;;;;;;4426712;32;20061;-59
2024/02/17 12:04:03;;;;;;;0.40;0.40;;;12.20;99.90;;;;;;4427125;32;20578;-59
2024/02/17 12:06:28;;;;;;;0.32;0.32;;;11.80;99.90;;;;;;4425877;32;20305;-58
2024/02/17 12:08:54;;;;;;;0.30;0.30;;;11.60;99.90;;;;;;4426088;32;20414;-64
2024/02/17 12:11:19;;;;;;;0.40;0.40;;;11.70;99.90;;;;;;4426676;32;20553;-60
2024/02/17 12:13:46;;;;;;;0.40;0.40;;;11.70;99.90;;;;;;4426872;32;20137;-60
2024/02/17 12:16:12;;;;;;;0.40;0.40;;;11.80;99.90;;;;;;4428356;32;20077;-59
2024/02/17 12:18:38;;;;;;;0.30;0.30;;;11.70;99.90;;;;;;4428902;32;20124;-59
2024/02/17 12:21:06;;;;;;;0.40;0.40;;;11.70;99.90;;;;;;4421725;32;20143;-60
2024/02/17 12:23:34;;;;;;;0.40;0.40;;;11.70;99.90;;;;;;4427031;32;20081;-59
2024/02/17 12:26:00;;;;;;;0.60;0.60;;;11.70;99.90;;;;;;4418499;32;20145;-59
2024/02/17 12:28:26;;;;;;;0.50;0.50;;;11.50;99.90;;;;;;4416888;32;21259;-58
2024/02/17 12:30:53;;;;;;;0.40;0.40;;;11.30;99.90;;;;;;4416515;32;20785;-60
2024/02/17 12:33:20;;;;;;;0.50;0.50;;;11.20;99.90;;;;;;4426982;32;20541;-60
2024/02/17 12:35:47;;;;;;;0.50;0.50;;;11.40;99.90;;;;;;4416560;32;20082;-60
2024/02/17 12:38:15;;;;;;;0.30;0.30;;;11.30;99.90;;;;;;4427575;32;20134;-60
2024/02/17 12:40:42;;;;;;;0.40;0.40;;;11.30;99.90;;;;;;4427208;32;20080;-64